createdAt,value
2023-04-06T00:00:50.717Z,100731.50
2023-04-06T00:01:30.541Z,100724.78
2023-04-06T00:02:10.723Z,100731.38
2023-04-06T00:02:50.644Z,100726.16
2023-04-06T00:03:31.264Z,100722.53
2023-04-06T00:04:12.621Z,100712.00
2023-04-06T00:04:59.599Z,100723.16
2023-04-06T00:05:53.541Z,100711.06
2023-04-06T00:06:48.563Z,100720.72
2023-04-06T00:07:42.541Z,100720.66
2023-04-06T00:08:36.568Z,100723.72
2023-04-06T00:09:30.544Z,100712.88
2023-04-06T00:10:18.579Z,100717.28
2023-04-06T00:10:52.638Z,100719.00
2023-04-06T00:11:39.545Z,100725.81
2023-04-06T00:12:20.794Z,100715.31
2023-04-06T00:13:01.526Z,100723.25
2023-04-06T00:13:41.623Z,100734.31
2023-04-06T00:14:23.531Z,100733.72
2023-04-06T00:15:05.585Z,100723.97
2023-04-06T00:15:45.562Z,100724.09
2023-04-06T00:16:30.343Z,100729.13
2023-04-06T00:17:10.654Z,100735.97
2023-04-06T00:17:50.711Z,100723.97
2023-04-06T00:18:30.524Z,100722.19
2023-04-06T00:19:10.668Z,100717.75
2023-04-06T00:19:50.523Z,100725.50
2023-04-06T00:20:31.787Z,100719.38
2023-04-06T00:21:12.548Z,100721.09
2023-04-06T00:21:52.727Z,100712.91
2023-04-06T00:22:32.527Z,100738.28
2023-04-06T00:23:12.618Z,100721.97
2023-04-06T00:23:52.549Z,100724.47
2023-04-06T00:24:33.618Z,100734.66
2023-04-06T00:25:14.508Z,100731.38
2023-04-06T00:25:54.666Z,100706.84
2023-04-06T00:26:34.545Z,100712.91
2023-04-06T00:27:14.616Z,100726.56
2023-04-06T00:27:54.542Z,100712.91
2023-04-06T00:28:35.874Z,100703.59
2023-04-06T00:29:15.548Z,100709.66
2023-04-06T00:29:55.747Z,100704.28
2023-04-06T00:30:35.519Z,100713.16
2023-04-06T00:31:16.029Z,100704.25
2023-04-06T00:31:57.559Z,100716.13
2023-04-06T00:32:38.647Z,100730.28
2023-04-06T00:33:18.508Z,100724.50
2023-04-06T00:33:58.624Z,100708.31
2023-04-06T00:34:39.528Z,100737.72
2023-04-06T00:35:19.677Z,100698.22
2023-04-06T00:35:59.570Z,100723.47
2023-04-06T00:36:40.600Z,100718.09
2023-04-06T00:37:20.547Z,100723.63
2023-04-06T00:38:01.000Z,100698.63
2023-04-06T00:38:41.499Z,100718.88
2023-04-06T00:39:21.627Z,100726.72
2023-04-06T00:40:01.509Z,100709.09
2023-04-06T00:40:42.580Z,100718.97
2023-04-06T00:41:22.554Z,100712.22
2023-04-06T00:42:03.613Z,100703.09
2023-04-06T00:42:43.535Z,100725.91
2023-04-06T00:43:23.622Z,100716.91
2023-04-06T00:44:04.504Z,100712.66
2023-04-06T00:44:45.598Z,100713.38
2023-04-06T00:45:25.509Z,100710.59
2023-04-06T00:46:06.367Z,100665.34
2023-04-06T00:46:46.498Z,100697.97
2023-04-06T00:47:26.720Z,100717.06
2023-04-06T00:48:07.552Z,100718.13
2023-04-06T00:48:48.602Z,100728.50
2023-04-06T00:49:28.507Z,100705.84
2023-04-06T00:50:09.615Z,100697.31
2023-04-06T00:50:56.502Z,100697.41
2023-04-06T00:51:33.639Z,100715.50
2023-04-06T00:52:21.501Z,100709.81
2023-04-06T00:52:55.792Z,100695.81
2023-04-06T00:53:35.498Z,100708.09
2023-04-06T00:54:15.705Z,100722.88
2023-04-06T00:54:58.502Z,100720.97
2023-04-06T00:55:38.594Z,100714.84
2023-04-06T00:56:18.516Z,100724.97
2023-04-06T00:56:59.662Z,100706.00
2023-04-06T00:57:39.492Z,100701.00
2023-04-06T00:58:19.558Z,100726.69
2023-04-06T00:59:00.580Z,100695.47
2023-04-06T00:59:40.785Z,100727.53
2023-04-06T01:00:22.481Z,100722.03
2023-04-06T01:01:02.631Z,100691.84
2023-04-06T01:01:42.540Z,100709.66
2023-04-06T01:02:22.686Z,100701.88
2023-04-06T01:03:02.553Z,100712.31
2023-04-06T01:03:43.340Z,100698.84
2023-04-06T01:04:24.486Z,100700.00
2023-04-06T01:05:04.626Z,100722.44
2023-04-06T01:05:47.501Z,100701.72
2023-04-06T01:06:27.581Z,100696.16
2023-04-06T01:07:08.480Z,100711.88
2023-04-06T01:07:48.612Z,100725.88
2023-04-06T01:08:28.523Z,100712.75
2023-04-06T01:09:08.812Z,100721.47
2023-04-06T01:09:49.489Z,100687.88
2023-04-06T01:10:34.567Z,100684.16
2023-04-06T01:11:14.492Z,100689.53
2023-04-06T01:11:54.618Z,100706.72
2023-04-06T01:12:34.476Z,100727.19
2023-04-06T01:13:14.562Z,100694.78
2023-04-06T01:13:55.518Z,100716.88
2023-04-06T01:14:35.667Z,100716.38
2023-04-06T01:15:17.496Z,100705.66
2023-04-06T01:15:57.584Z,100727.69
2023-04-06T01:16:37.469Z,100708.88
2023-04-06T01:17:17.640Z,100699.03
2023-04-06T01:17:57.527Z,100714.50
2023-04-06T01:18:38.013Z,100721.84
2023-04-06T01:19:19.470Z,100724.88
2023-04-06T01:19:59.581Z,100713.28
2023-04-06T01:20:39.487Z,100699.44
2023-04-06T01:21:19.706Z,100709.13
2023-04-06T01:22:00.469Z,100701.34
2023-04-06T01:22:40.566Z,100732.03
2023-04-06T01:23:20.490Z,100728.50
2023-04-06T01:24:00.559Z,100731.59
2023-04-06T01:24:41.446Z,100709.28
2023-04-06T01:25:21.573Z,100716.31
2023-04-06T01:26:01.482Z,100722.19
2023-04-06T01:26:42.614Z,100704.13
2023-04-06T01:27:22.495Z,100705.50
2023-04-06T01:28:02.558Z,100715.19
2023-04-06T01:28:44.455Z,100719.34
2023-04-06T01:29:24.582Z,100716.97
2023-04-06T01:30:04.480Z,100716.56
2023-04-06T01:30:44.564Z,100721.75
2023-04-06T01:31:24.528Z,100725.03
2023-04-06T01:32:04.669Z,100724.16
2023-04-06T01:32:44.523Z,100691.34
2023-04-06T01:33:25.578Z,100727.59
2023-04-06T01:34:05.459Z,100729.25
2023-04-06T01:34:45.700Z,100730.03
2023-04-06T01:35:27.495Z,100723.81
2023-04-06T01:36:07.555Z,100726.34
2023-04-06T01:36:48.510Z,100716.56
2023-04-06T01:37:28.616Z,100722.69
2023-04-06T01:38:08.455Z,100716.56
2023-04-06T01:38:48.521Z,100696.88
2023-04-06T01:39:28.468Z,100713.44
2023-04-06T01:40:08.542Z,100730.72
2023-04-06T01:40:48.462Z,100707.13
2023-04-06T01:41:28.558Z,100727.44
2023-04-06T01:42:48.572Z,100714.31
2023-04-06T01:43:29.441Z,100726.50
2023-04-06T01:44:10.524Z,100716.03
2023-04-06T01:44:50.426Z,100710.97
2023-04-06T01:45:30.578Z,100724.66
2023-04-06T01:46:11.504Z,100701.09
2023-04-06T01:46:51.741Z,100716.88
2023-04-06T01:47:31.502Z,100704.44
2023-04-06T01:48:12.552Z,100704.28
2023-04-06T01:48:52.450Z,100708.84
2023-04-06T01:49:32.533Z,100686.91
2023-04-06T01:50:14.451Z,100702.56
2023-04-06T01:50:48.182Z,100722.69
2023-04-06T01:51:35.424Z,100706.00
2023-04-06T01:52:09.213Z,100690.44
2023-04-06T01:52:56.469Z,100705.84
2023-04-06T01:53:30.458Z,100715.50
2023-04-06T01:54:18.441Z,100697.38
2023-04-06T01:54:52.235Z,100718.81
2023-04-06T01:55:39.444Z,100710.06
2023-04-06T01:56:13.293Z,100696.59
2023-04-06T01:57:01.431Z,100716.22
2023-04-06T01:57:35.944Z,100692.00
2023-04-06T01:58:17.438Z,100708.53
2023-04-06T01:58:51.614Z,100714.47
2023-04-06T01:59:25.558Z,100685.09
2023-04-06T02:00:05.431Z,100706.72
2023-04-06T02:00:39.621Z,100712.06
2023-04-06T02:01:13.257Z,100713.91
2023-04-06T02:01:54.454Z,100705.25
2023-04-06T02:02:28.675Z,100708.94
2023-04-06T02:03:03.372Z,100705.59
2023-04-06T02:03:43.516Z,100695.41
2023-04-06T02:04:17.607Z,100699.63
2023-04-06T02:04:51.654Z,100704.81
2023-04-06T02:05:32.425Z,100703.94
2023-04-06T02:06:06.639Z,100696.88
2023-04-06T02:06:40.204Z,100709.19
2023-04-06T02:07:20.422Z,100702.13
2023-04-06T02:07:54.569Z,100680.03
2023-04-06T02:08:28.296Z,100724.16
2023-04-06T02:09:09.687Z,100724.94
2023-04-06T02:09:43.522Z,100719.16
2023-04-06T02:10:18.402Z,100714.06
2023-04-06T02:10:59.435Z,100703.16
2023-04-06T02:11:33.524Z,100709.28
2023-04-06T02:12:07.161Z,100714.50
2023-04-06T02:12:48.426Z,100692.97
2023-04-06T02:13:22.547Z,100713.72
2023-04-06T02:13:58.227Z,100718.88
2023-04-06T02:14:40.430Z,100702.22
2023-04-06T02:15:15.516Z,100720.38
2023-04-06T02:15:49.230Z,100714.16
2023-04-06T02:16:29.429Z,100721.06
2023-04-06T02:17:03.566Z,100708.88
2023-04-06T02:17:37.222Z,100711.56
2023-04-06T02:18:18.428Z,100710.69
2023-04-06T02:18:52.561Z,100693.94
2023-04-06T02:19:26.198Z,100683.56
2023-04-06T02:20:06.460Z,100714.91
2023-04-06T02:20:40.523Z,100706.47
2023-04-06T02:21:14.662Z,100716.81
2023-04-06T02:21:54.439Z,100712.41
2023-04-06T02:22:28.524Z,100714.41
2023-04-06T02:23:02.173Z,100686.34
2023-04-06T02:23:42.522Z,100684.88
2023-04-06T02:24:16.467Z,100688.31
2023-04-06T02:24:50.646Z,100713.47
2023-04-06T02:25:30.452Z,100703.25
2023-04-06T02:26:04.496Z,100703.09
2023-04-06T02:26:38.256Z,100681.47
2023-04-06T02:27:18.411Z,100701.53
2023-04-06T02:27:52.494Z,100688.38
2023-04-06T02:28:26.255Z,100674.38
2023-04-06T02:29:07.596Z,100708.78
2023-04-06T02:29:41.488Z,100708.69
2023-04-06T02:30:15.407Z,100711.34
2023-04-06T02:30:55.406Z,100711.19
2023-04-06T02:31:29.483Z,100716.66
2023-04-06T02:32:17.399Z,100689.09
2023-04-06T02:32:51.821Z,100687.53
2023-04-06T02:33:38.417Z,100711.97
2023-04-06T02:34:18.289Z,100697.91
2023-04-06T02:35:05.407Z,100720.63
2023-04-06T02:35:39.523Z,100681.47
2023-04-06T02:36:19.407Z,100687.97
2023-04-06T02:36:59.491Z,100710.16
2023-04-06T02:37:39.373Z,100714.66
2023-04-06T02:38:19.506Z,100693.66
2023-04-06T02:38:59.401Z,100686.16
2023-04-06T02:39:39.523Z,100703.41
2023-04-06T02:40:21.408Z,100694.09
2023-04-06T02:41:01.478Z,100705.66
2023-04-06T02:41:41.398Z,100716.00
2023-04-06T02:42:21.511Z,100709.94
2023-04-06T02:43:01.428Z,100715.66
2023-04-06T02:43:41.484Z,100713.59
2023-04-06T02:44:22.348Z,100697.06
2023-04-06T02:45:02.711Z,100708.38
2023-04-06T02:45:49.407Z,100697.31
2023-04-06T02:46:23.660Z,100713.72
2023-04-06T02:47:03.411Z,100704.72
2023-04-06T02:47:43.518Z,100718.22
2023-04-06T02:48:23.371Z,100716.50
2023-04-06T02:49:03.463Z,100705.28
2023-04-06T02:49:44.675Z,100708.53
2023-04-06T02:50:25.467Z,100724.44
2023-04-06T02:51:05.364Z,100709.44
2023-04-06T02:51:45.875Z,100715.38
2023-04-06T02:52:25.411Z,100706.47
2023-04-06T02:53:05.514Z,100687.41
2023-04-06T02:53:48.388Z,100692.75
2023-04-06T02:54:42.384Z,100711.69
2023-04-06T02:55:36.378Z,100711.69
2023-04-06T02:56:30.401Z,100718.50
2023-04-06T02:57:24.344Z,100718.75
2023-04-06T02:58:04.385Z,100710.34
2023-04-06T02:58:44.445Z,100687.97
2023-04-06T02:59:24.452Z,100715.78
2023-04-06T03:00:04.465Z,100717.69
2023-04-06T03:00:45.389Z,100724.59
2023-04-06T03:01:25.545Z,100721.13
2023-04-06T03:02:05.372Z,100694.63
2023-04-06T03:02:45.418Z,100716.31
2023-04-06T03:03:19.546Z,100735.03
2023-04-06T03:04:06.398Z,100724.34
2023-04-06T03:04:40.496Z,100730.28
2023-04-06T03:05:27.368Z,100726.59
2023-04-06T03:06:01.460Z,100703.22
2023-04-06T03:06:48.373Z,100714.72
2023-04-06T03:07:22.504Z,100732.81
2023-04-06T03:08:09.447Z,100711.53
2023-04-06T03:08:43.445Z,100727.88
2023-04-06T03:09:30.351Z,100716.88
2023-04-06T03:10:04.451Z,100716.88
2023-04-06T03:10:52.388Z,100732.81
2023-04-06T03:11:27.515Z,100725.19
2023-04-06T03:12:14.346Z,100697.88
2023-04-06T03:12:48.481Z,100726.53
2023-04-06T03:13:29.360Z,100736.22
2023-04-06T03:14:09.429Z,100702.44
2023-04-06T03:14:50.353Z,100704.03
2023-04-06T03:15:30.599Z,100736.13
2023-04-06T03:16:11.367Z,100716.13
2023-04-06T03:17:05.346Z,100715.34
2023-04-06T03:18:00.564Z,100716.13
2023-04-06T03:18:47.357Z,100704.03
2023-04-06T03:19:21.451Z,100727.47
2023-04-06T03:20:08.372Z,100727.59
2023-04-06T03:20:42.943Z,100738.09
2023-04-06T03:21:30.332Z,100721.66
2023-04-06T03:22:04.467Z,100720.69
2023-04-06T03:22:51.329Z,100727.59
2023-04-06T03:23:25.433Z,100724.31
2023-04-06T03:24:13.401Z,100722.56
2023-04-06T03:24:47.474Z,100717.31
2023-04-06T03:25:34.359Z,100731.22
2023-04-06T03:26:09.457Z,100733.81
2023-04-06T03:26:56.332Z,100702.78
2023-04-06T03:27:30.523Z,100726.38
2023-04-06T03:28:17.330Z,100713.78
2023-04-06T03:28:51.442Z,100718.81
2023-04-06T03:29:38.334Z,100739.13
2023-04-06T03:30:17.084Z,100742.88
2023-04-06T03:31:04.369Z,100712.69
2023-04-06T03:31:38.517Z,100740.44
2023-04-06T03:32:25.356Z,100729.66
2023-04-06T03:32:59.521Z,100742.34
2023-04-06T03:33:46.363Z,100723.44
2023-04-06T03:34:20.920Z,100718.06
2023-04-06T03:35:02.361Z,100730.25
2023-04-06T03:35:42.493Z,100738.88
2023-04-06T03:36:22.298Z,100735.19
2023-04-06T03:37:09.918Z,100723.00
2023-04-06T03:37:50.350Z,100721.34
2023-04-06T03:38:30.635Z,100731.66
2023-04-06T03:39:11.332Z,100719.69
2023-04-06T03:39:51.531Z,100731.97
2023-04-06T03:40:32.325Z,100730.56
2023-04-06T03:41:12.419Z,100727.63
2023-04-06T03:41:54.475Z,100728.78
2023-04-06T03:42:34.422Z,100740.66
2023-04-06T03:43:15.318Z,100735.50
2023-04-06T03:43:55.596Z,100713.63
2023-04-06T03:44:35.349Z,100693.81
2023-04-06T03:45:16.524Z,100718.97
2023-04-06T03:45:57.338Z,100726.06
2023-04-06T03:46:37.452Z,100742.56
2023-04-06T03:47:18.298Z,100702.06
2023-04-06T03:47:58.430Z,100720.94
2023-04-06T03:48:39.303Z,100741.78
2023-04-06T03:49:19.468Z,100710.50
2023-04-06T03:49:59.323Z,100746.09
2023-04-06T03:50:39.416Z,100741.63
2023-04-06T03:51:20.318Z,100722.75
2023-04-06T03:52:01.408Z,100731.25
2023-04-06T03:52:43.287Z,100734.72
2023-04-06T03:53:23.424Z,100730.38
2023-04-06T03:54:03.306Z,100740.06
2023-04-06T03:54:43.389Z,100745.41
2023-04-06T03:55:24.291Z,100735.00
2023-04-06T03:56:04.928Z,100690.19
2023-04-06T03:56:45.310Z,100720.72
2023-04-06T03:57:25.621Z,100719.47
2023-04-06T03:58:05.314Z,100717.88
2023-04-06T03:58:51.637Z,100721.25
2023-04-06T03:59:32.368Z,100740.34
2023-04-06T04:00:13.445Z,100738.72
2023-04-06T04:00:56.285Z,100742.09
2023-04-06T04:01:36.541Z,100727.63
2023-04-06T04:02:16.347Z,100725.25
2023-04-06T04:02:56.638Z,100727.28
2023-04-06T04:03:37.403Z,100732.31
2023-04-06T04:04:18.418Z,100732.50
2023-04-06T04:04:58.330Z,100729.28
2023-04-06T04:05:38.395Z,100731.84
2023-04-06T04:06:18.295Z,100744.78
2023-04-06T04:06:58.363Z,100736.75
2023-04-06T04:07:39.299Z,100731.78
2023-04-06T04:08:19.384Z,100734.22
2023-04-06T04:08:59.270Z,100747.28
2023-04-06T04:09:39.438Z,100717.94
2023-04-06T04:10:19.285Z,100746.63
2023-04-06T04:10:59.412Z,100730.91
2023-04-06T04:11:40.284Z,100720.69
2023-04-06T04:12:20.440Z,100729.28
2023-04-06T04:13:00.356Z,100737.97
2023-04-06T04:13:40.359Z,100743.91
2023-04-06T04:14:20.272Z,100733.56
2023-04-06T04:15:00.375Z,100755.16
2023-04-06T04:15:41.249Z,100748.34
2023-04-06T04:16:21.451Z,100701.66
2023-04-06T04:17:02.295Z,100756.22
2023-04-06T04:17:56.303Z,100726.03
2023-04-06T04:18:36.298Z,100749.69
2023-04-06T04:19:16.385Z,100721.13
2023-04-06T04:19:57.254Z,100759.03
2023-04-06T04:20:37.359Z,100734.19
2023-04-06T04:21:17.280Z,100750.00
2023-04-06T04:21:57.363Z,100757.50
2023-04-06T04:22:37.296Z,100754.00
2023-04-06T04:23:17.396Z,100759.03
2023-04-06T04:23:58.357Z,100749.63
2023-04-06T04:24:38.370Z,100755.78
2023-04-06T04:25:18.316Z,100765.50
2023-04-06T04:25:58.424Z,100759.53
2023-04-06T04:26:38.268Z,100754.41
2023-04-06T04:27:18.387Z,100768.19
2023-04-06T04:27:59.282Z,100765.81
2023-04-06T04:28:39.359Z,100753.41
2023-04-06T04:29:19.290Z,100771.81
2023-04-06T04:29:59.666Z,100763.28
2023-04-06T04:30:39.292Z,100763.28
2023-04-06T04:31:20.970Z,100753.97
2023-04-06T04:32:02.300Z,100771.47
2023-04-06T04:32:42.484Z,100756.66
2023-04-06T04:33:23.281Z,100752.25
2023-04-06T04:34:03.381Z,100758.41
2023-04-06T04:34:43.292Z,100765.16
2023-04-06T04:35:23.448Z,100769.69
2023-04-06T04:36:04.331Z,100756.59
2023-04-06T04:36:44.396Z,100767.97
2023-04-06T04:37:24.290Z,100738.72
2023-04-06T04:38:04.963Z,100767.19
2023-04-06T04:38:45.279Z,100759.56
2023-04-06T04:39:25.457Z,100768.91
2023-04-06T04:40:06.290Z,100738.56
2023-04-06T04:40:46.531Z,100753.63
2023-04-06T04:41:27.281Z,100768.44
2023-04-06T04:42:07.392Z,100770.25
2023-04-06T04:42:47.333Z,100767.81
2023-04-06T04:43:27.407Z,100767.16
2023-04-06T04:44:08.287Z,100763.69
2023-04-06T04:44:48.386Z,100760.13
2023-04-06T04:45:28.320Z,100765.25
2023-04-06T04:46:08.901Z,100783.09
2023-04-06T04:46:49.314Z,100770.47
2023-04-06T04:47:29.448Z,100761.28
2023-04-06T04:48:12.304Z,100783.19
2023-04-06T04:49:06.505Z,100773.28
2023-04-06T04:50:01.142Z,100771.56
2023-04-06T04:50:48.381Z,100775.81
2023-04-06T04:51:23.483Z,100778.47
2023-04-06T04:52:10.342Z,100775.91
2023-04-06T04:52:45.525Z,100773.16
2023-04-06T04:53:32.253Z,100761.81
2023-04-06T04:54:06.603Z,100769.53
2023-04-06T04:54:54.281Z,100771.56
2023-04-06T04:55:28.440Z,100768.78
2023-04-06T04:56:09.358Z,100772.41
2023-04-06T04:56:49.415Z,100765.13
2023-04-06T04:57:30.277Z,100767.72
2023-04-06T04:58:12.113Z,100773.22
2023-04-06T04:58:53.273Z,100734.41
2023-04-06T04:59:33.397Z,100764.91
2023-04-06T05:00:15.282Z,100759.88
2023-04-06T05:00:55.473Z,100770.53
2023-04-06T05:01:43.942Z,100763.34
2023-04-06T05:02:34.425Z,100751.19
2023-04-06T05:03:15.390Z,100773.09
2023-04-06T05:03:55.597Z,100758.00
2023-04-06T05:04:37.287Z,100774.66
2023-04-06T05:05:17.362Z,100766.88
2023-04-06T05:05:58.243Z,100752.97
2023-04-06T05:06:47.269Z,100756.13
2023-04-06T05:08:49.339Z,100766.88
2023-04-06T05:09:44.283Z,100778.91
2023-04-06T05:10:39.238Z,100777.84
2023-04-06T05:11:34.302Z,100772.31
2023-04-06T05:12:15.266Z,100752.50
2023-04-06T05:12:55.540Z,100765.22
2023-04-06T05:13:38.281Z,100772.31
2023-04-06T05:14:21.105Z,100778.69
2023-04-06T05:15:03.280Z,100780.34
2023-04-06T05:15:43.388Z,100779.34
2023-04-06T05:16:26.316Z,100777.53
2023-04-06T05:17:07.386Z,100777.06
2023-04-06T05:17:50.613Z,100763.34
2023-04-06T05:18:33.389Z,100753.19
2023-04-06T05:19:13.268Z,100774.94
2023-04-06T05:19:53.381Z,100774.81
2023-04-06T05:20:34.249Z,100773.75
2023-04-06T05:21:14.372Z,100778.91
2023-04-06T05:21:54.248Z,100783.25
2023-04-06T05:22:34.402Z,100781.38
2023-04-06T05:23:14.323Z,100779.66
2023-04-06T05:23:54.984Z,100768.22
2023-04-06T05:24:36.327Z,100763.25
2023-04-06T05:25:16.633Z,100770.81
2023-04-06T05:25:57.267Z,100778.63
2023-04-06T05:26:37.348Z,100759.16
2023-04-06T05:27:18.297Z,100767.78
2023-04-06T05:27:58.443Z,100779.72
2023-04-06T05:28:39.316Z,100774.72
2023-04-06T05:29:19.362Z,100781.97
2023-04-06T05:29:59.252Z,100774.31
2023-04-06T05:30:39.413Z,100765.38
2023-04-06T05:31:19.322Z,100772.88
2023-04-06T05:31:59.358Z,100781.50
2023-04-06T05:32:40.348Z,100780.28
2023-04-06T05:33:20.524Z,100767.16
2023-04-06T05:34:00.362Z,100780.34
2023-04-06T05:34:40.590Z,100789.88
2023-04-06T05:35:21.357Z,100789.00
2023-04-06T05:36:02.048Z,100792.31
2023-04-06T05:36:43.264Z,100793.06
2023-04-06T05:37:24.322Z,100777.03
2023-04-06T05:38:05.255Z,100790.16
2023-04-06T05:38:45.494Z,100788.34
2023-04-06T05:39:25.269Z,100780.38
2023-04-06T05:40:05.507Z,100792.59
2023-04-06T05:40:48.308Z,100794.19
2023-04-06T05:41:28.398Z,100788.75
2023-04-06T05:42:14.377Z,100787.84
2023-04-06T05:43:04.168Z,100788.63
2023-04-06T05:43:45.271Z,100776.50
2023-04-06T05:44:42.348Z,100749.75
2023-04-06T05:45:37.418Z,100751.38
2023-04-06T05:46:31.318Z,100779.00
2023-04-06T05:47:25.248Z,100753.06
2023-04-06T05:48:21.281Z,100786.72
2023-04-06T05:49:15.219Z,100792.06
2023-04-06T05:50:02.239Z,100791.81
2023-04-06T05:50:36.492Z,100792.44
2023-04-06T05:51:23.409Z,100789.56
2023-04-06T05:51:57.324Z,100781.34
2023-04-06T05:52:47.871Z,100778.53
2023-04-06T05:53:22.486Z,100794.09
2023-04-06T05:54:09.224Z,100779.00
2023-04-06T05:54:46.469Z,100789.25
2023-04-06T05:55:27.224Z,100776.19
2023-04-06T05:56:10.334Z,100784.78
2023-04-06T05:56:53.094Z,100783.75
2023-04-06T05:57:33.333Z,100783.44
2023-04-06T05:58:14.207Z,100784.38
2023-04-06T05:58:54.453Z,100772.19
2023-04-06T05:59:34.225Z,100790.38
2023-04-06T06:00:15.637Z,100775.25
2023-04-06T06:00:56.422Z,100778.78
2023-04-06T06:01:37.162Z,100783.75
2023-04-06T06:03:23.277Z,100785.25
2023-04-06T06:03:57.368Z,100778.94
2023-04-06T06:04:44.253Z,100784.78
2023-04-06T06:05:18.397Z,100774.06
2023-04-06T06:06:12.193Z,100771.31
2023-04-06T06:06:46.394Z,100764.38
2023-04-06T06:07:33.199Z,100776.22
2023-04-06T06:08:07.403Z,100787.38
2023-04-06T06:08:54.191Z,100772.28
2023-04-06T06:09:28.291Z,100766.94
2023-04-06T06:10:16.201Z,100779.78
2023-04-06T06:10:50.446Z,100766.41
2023-04-06T06:11:38.276Z,100782.22
2023-04-06T06:12:14.474Z,100769.00
2023-04-06T06:13:01.227Z,100785.53
2023-04-06T06:13:35.421Z,100786.22
2023-04-06T06:14:23.204Z,100751.38
2023-04-06T06:14:57.363Z,100792.19
2023-04-06T06:15:44.210Z,100790.56
2023-04-06T06:16:18.278Z,100781.50
2023-04-06T06:16:58.190Z,100776.06
2023-04-06T06:17:39.771Z,100757.66
2023-04-06T06:18:21.203Z,100784.50
2023-04-06T06:19:01.224Z,100774.34
2023-04-06T06:19:42.186Z,100777.63
2023-04-06T06:20:24.330Z,100775.19
2023-04-06T06:21:04.160Z,100780.22
2023-04-06T06:21:44.399Z,100771.66
2023-04-06T06:22:25.236Z,100777.63
2023-04-06T06:23:05.456Z,100780.22
2023-04-06T06:23:47.163Z,100783.75
2023-04-06T06:24:28.115Z,100741.84
2023-04-06T06:25:10.185Z,100779.94
2023-04-06T06:25:50.491Z,100786.72
2023-04-06T06:26:31.197Z,100786.53
2023-04-06T06:27:11.301Z,100786.47
2023-04-06T06:27:52.173Z,100779.63
2023-04-06T06:28:32.348Z,100784.59
2023-04-06T06:29:14.162Z,100757.53
2023-04-06T06:29:54.332Z,100786.06
2023-04-06T06:30:35.247Z,100774.66
2023-04-06T06:31:15.315Z,100775.28
2023-04-06T06:31:55.134Z,100786.59
2023-04-06T06:32:35.406Z,100777.97
2023-04-06T06:33:15.211Z,100777.81
2023-04-06T06:33:56.261Z,100764.66
2023-04-06T06:34:37.212Z,100783.59
2023-04-06T06:35:17.320Z,100778.50
2023-04-06T06:36:19.209Z,100769.50
2023-04-06T06:37:13.138Z,100767.97
2023-04-06T06:38:07.152Z,100774.31
2023-04-06T06:38:48.176Z,100782.84
2023-04-06T06:39:28.294Z,100782.84
2023-04-06T06:40:08.230Z,100786.28
2023-04-06T06:40:49.476Z,100794.84
2023-04-06T06:41:29.168Z,100779.13
2023-04-06T06:42:09.346Z,100782.22
2023-04-06T06:42:50.144Z,100783.91
2023-04-06T06:43:30.657Z,100787.19
2023-04-06T06:44:11.803Z,100786.25
2023-04-06T06:44:52.500Z,100793.16
2023-04-06T06:45:33.290Z,100778.06
2023-04-06T06:46:13.673Z,100783.22
2023-04-06T06:46:55.267Z,100781.50
2023-04-06T06:47:35.432Z,100774.25
2023-04-06T06:48:15.238Z,100770.78
2023-04-06T06:48:55.364Z,100787.28
2023-04-06T06:49:35.168Z,100779.09
2023-04-06T06:50:16.279Z,100779.97
2023-04-06T06:50:57.146Z,100773.91
2023-04-06T06:51:40.305Z,100782.22
2023-04-06T06:52:20.235Z,100759.75
2023-04-06T06:53:00.492Z,100785.69
2023-04-06T06:53:41.178Z,100773.22
2023-04-06T06:54:21.238Z,100761.13
2023-04-06T06:55:02.204Z,100778.78
2023-04-06T06:55:42.482Z,100749.03
2023-04-06T06:56:22.146Z,100779.19
2023-04-06T06:57:02.376Z,100769.44
2023-04-06T06:57:42.185Z,100774.44
2023-04-06T06:58:23.268Z,100771.69
2023-04-06T06:59:04.198Z,100782.09
2023-04-06T06:59:44.233Z,100782.09
2023-04-06T07:00:25.174Z,100766.88
2023-04-06T07:01:06.590Z,100780.88
2023-04-06T07:01:47.125Z,100766.69
2023-04-06T07:02:27.260Z,100741.78
2023-04-06T07:03:08.317Z,100769.97
2023-04-06T07:04:02.135Z,100775.31
2023-04-06T07:04:56.379Z,100759.59
2023-04-06T07:05:43.220Z,100776.09
2023-04-06T07:06:17.316Z,100777.25
2023-04-06T07:07:05.149Z,100772.66
2023-04-06T07:07:41.249Z,100768.06
2023-04-06T07:08:30.216Z,100778.78
2023-04-06T07:09:04.304Z,100760.31
2023-04-06T07:09:51.180Z,100770.31
2023-04-06T07:10:25.272Z,100773.97
2023-04-06T07:11:06.154Z,100767.38
2023-04-06T07:11:46.223Z,100765.81
2023-04-06T07:12:27.152Z,100776.19
2023-04-06T07:13:07.252Z,100760.25
2023-04-06T07:13:47.129Z,100758.38
2023-04-06T07:14:27.300Z,100777.41
2023-04-06T07:15:08.161Z,100770.81
2023-04-06T07:15:48.238Z,100772.63
2023-04-06T07:16:28.189Z,100776.09
2023-04-06T07:17:08.541Z,100772.88
2023-04-06T07:17:51.205Z,100773.75
2023-04-06T07:18:32.068Z,100781.69
2023-04-06T07:19:14.146Z,100777.66
2023-04-06T07:19:54.354Z,100767.69
2023-04-06T07:20:35.192Z,100763.03
2023-04-06T07:21:15.357Z,100772.34
2023-04-06T07:21:57.119Z,100768.75
2023-04-06T07:22:37.310Z,100768.03
2023-04-06T07:23:18.212Z,100770.63
2023-04-06T07:23:58.208Z,100780.31
2023-04-06T07:24:38.144Z,100776.78
2023-04-06T07:25:18.242Z,100767.69
2023-04-06T07:26:00.131Z,100770.38
2023-04-06T07:26:40.383Z,100748.06
2023-04-06T07:27:21.195Z,100770.63
2023-04-06T07:28:01.206Z,100766.72
2023-04-06T07:28:43.129Z,100761.56
2023-04-06T07:29:24.029Z,100764.84
2023-04-06T07:30:04.084Z,100767.53
2023-04-06T07:30:46.392Z,100772.53
2023-04-06T07:31:28.126Z,100741.41
2023-04-06T07:32:08.358Z,100774.41
2023-04-06T07:32:48.156Z,100780.47
2023-04-06T07:33:30.873Z,100764.47
2023-04-06T07:34:11.154Z,100760.59
2023-04-06T07:34:51.289Z,100762.16
2023-04-06T07:35:33.102Z,100775.47
2023-04-06T07:36:13.279Z,100766.69
2023-04-06T07:36:53.072Z,100780.31
2023-04-06T07:37:33.161Z,100771.69
2023-04-06T07:38:13.156Z,100742.38
2023-04-06T07:38:53.369Z,100776.25
2023-04-06T07:39:34.114Z,100769.25
2023-04-06T07:40:15.545Z,100768.22
2023-04-06T07:40:55.101Z,100772.69
2023-04-06T07:41:35.189Z,100759.22
2023-04-06T07:42:15.088Z,100771.13
2023-04-06T07:42:56.767Z,100762.47
2023-04-06T07:43:39.105Z,100766.91
2023-04-06T07:44:19.238Z,100781.84
2023-04-06T07:44:59.082Z,100775.88
2023-04-06T07:45:39.296Z,100784.03
2023-04-06T07:46:19.153Z,100769.72
2023-04-06T07:46:59.250Z,100755.25
2023-04-06T07:47:40.131Z,100760.81
2023-04-06T07:48:20.168Z,100769.97
2023-04-06T07:49:00.116Z,100780.31
2023-04-06T07:49:40.362Z,100770.53
2023-04-06T07:50:20.120Z,100763.19